createdAt,value
2018-09-13T00:00:56.505Z,6.60
2018-09-13T00:03:39.339Z,6.50
2018-09-13T00:06:22.288Z,5.57
2018-09-13T00:09:06.081Z,6.80
2018-09-13T00:11:48.425Z,6.47
2018-09-13T00:14:31.278Z,6.07
2018-09-13T00:17:14.230Z,6.37
2018-09-13T00:19:57.124Z,6.00
2018-09-13T00:22:40.015Z,5.80
2018-09-13T00:25:23.341Z,7.10
2018-09-13T00:28:05.769Z,9.73
2018-09-13T00:30:48.556Z,10.70
2018-09-13T00:33:31.134Z,10.00
2018-09-13T00:36:14.177Z,8.17
2018-09-13T00:38:56.974Z,7.30
2018-09-13T00:41:39.907Z,7.30
2018-09-13T00:44:22.300Z,6.97
2018-09-13T00:47:09.049Z,7.23
2018-09-13T00:49:51.721Z,9.67
2018-09-13T00:52:34.209Z,9.40
2018-09-13T00:55:17.080Z,9.17
2018-09-13T00:58:00.043Z,10.70
2018-09-13T01:00:42.561Z,8.80
2018-09-13T01:03:25.305Z,7.93
2018-09-13T01:06:07.900Z,7.97
2018-09-13T01:08:50.573Z,10.00
2018-09-13T01:11:33.864Z,7.20
2018-09-13T01:14:17.042Z,7.23
2018-09-13T01:16:59.819Z,7.37
2018-09-13T01:19:42.539Z,7.73
2018-09-13T01:22:24.973Z,7.00
2018-09-13T01:25:07.797Z,8.73
2018-09-13T01:27:50.881Z,7.37
2018-09-13T01:30:33.502Z,7.57
2018-09-13T01:33:15.913Z,7.07
2018-09-13T01:35:58.596Z,6.13
2018-09-13T01:38:41.215Z,7.50
2018-09-13T01:41:24.264Z,6.73
2018-09-13T01:44:07.096Z,6.07
2018-09-13T01:46:49.950Z,6.10
2018-09-13T01:49:33.145Z,6.53
2018-09-13T01:52:16.053Z,6.50
2018-09-13T01:54:59.457Z,6.80
2018-09-13T01:57:42.582Z,6.27
2018-09-13T02:00:25.943Z,6.97
2018-09-13T02:03:09.187Z,6.30
2018-09-13T02:05:51.809Z,7.27
2018-09-13T02:08:34.853Z,7.00
2018-09-13T02:11:17.577Z,6.77
2018-09-13T02:14:00.416Z,7.07
2018-09-13T02:16:42.980Z,8.40
2018-09-13T02:19:25.831Z,6.23
2018-09-13T02:22:09.436Z,7.67
2018-09-13T02:24:52.309Z,7.53
2018-09-13T02:27:34.904Z,7.50
2018-09-13T02:30:17.715Z,7.40
2018-09-13T02:33:00.395Z,7.30
2018-09-13T02:35:43.731Z,7.07
2018-09-13T02:38:26.728Z,7.13
2018-09-13T02:41:09.549Z,7.33
2018-09-13T02:43:52.243Z,8.30
2018-09-13T02:46:35.326Z,6.83
2018-09-13T02:49:18.183Z,7.17
2018-09-13T02:52:00.929Z,7.00
2018-09-13T02:54:43.466Z,6.20
2018-09-13T02:57:26.862Z,6.50
2018-09-13T03:00:10.277Z,6.10
2018-09-13T03:02:53.267Z,5.70
2018-09-13T03:05:36.596Z,6.70
2018-09-13T03:08:19.088Z,6.20
2018-09-13T03:11:02.441Z,6.50
2018-09-13T03:13:45.452Z,6.27
2018-09-13T03:16:28.385Z,6.43
2018-09-13T03:19:11.250Z,6.20
2018-09-13T03:21:53.850Z,5.77
2018-09-13T03:24:36.479Z,6.33
2018-09-13T03:27:19.338Z,5.70
2018-09-13T03:30:02.220Z,5.90
2018-09-13T03:32:44.628Z,6.00
2018-09-13T03:35:27.856Z,5.20
2018-09-13T03:38:10.592Z,5.43
2018-09-13T03:40:53.574Z,5.20
2018-09-13T03:43:36.048Z,5.50
2018-09-13T03:46:18.871Z,5.60
2018-09-13T03:49:01.528Z,6.30
2018-09-13T03:51:44.222Z,5.93
2018-09-13T03:54:27.108Z,6.07
2018-09-13T03:57:09.909Z,6.70
2018-09-13T03:59:52.554Z,6.77
2018-09-13T04:02:35.357Z,5.70
2018-09-13T04:05:18.133Z,7.20
2018-09-13T04:08:00.941Z,6.90
2018-09-13T04:10:44.114Z,7.10
2018-09-13T04:13:27.379Z,7.50
2018-09-13T04:16:10.040Z,7.87
2018-09-13T04:18:52.862Z,6.70
2018-09-13T04:21:35.692Z,7.83
2018-09-13T04:24:18.532Z,10.33
2018-09-13T04:27:01.187Z,9.10
2018-09-13T04:29:44.246Z,8.83
2018-09-13T04:32:26.823Z,11.40
2018-09-13T04:35:09.806Z,11.03
2018-09-13T04:37:52.900Z,11.80
2018-09-13T04:40:36.121Z,7.43
2018-09-13T04:43:18.967Z,8.30
2018-09-13T04:46:01.902Z,8.67
2018-09-13T04:48:44.529Z,8.40
2018-09-13T04:51:27.252Z,7.43
2018-09-13T04:54:10.134Z,7.23
2018-09-13T04:56:52.640Z,9.20
2018-09-13T04:59:35.987Z,7.87
2018-09-13T05:02:19.756Z,7.83
2018-09-13T05:05:02.381Z,7.30
2018-09-13T05:07:45.409Z,9.07
2018-09-13T05:10:27.960Z,8.47
2018-09-13T05:13:10.671Z,7.90
2018-09-13T05:15:53.380Z,8.80
2018-09-13T05:18:36.372Z,8.67
2018-09-13T05:21:18.869Z,8.60
2018-09-13T05:24:26.397Z,8.80
2018-09-13T05:27:10.918Z,8.30
2018-09-13T05:29:58.428Z,8.80
2018-09-13T05:32:41.483Z,8.70
2018-09-13T05:35:24.446Z,8.37
2018-09-13T05:38:08.041Z,8.87
2018-09-13T05:40:50.553Z,8.63
2018-09-13T05:43:33.646Z,8.63
2018-09-13T05:46:17.825Z,8.20
2018-09-13T05:49:00.739Z,7.73
2018-09-13T05:51:43.377Z,8.07
2018-09-13T05:54:26.800Z,8.63
2018-09-13T05:57:12.977Z,7.70
2018-09-13T05:59:56.849Z,8.10
2018-09-13T06:02:39.524Z,7.47
2018-09-13T06:05:22.665Z,7.10
2018-09-13T06:08:06.407Z,7.23
2018-09-13T06:17:19.004Z,6.70
2018-09-13T06:26:28.434Z,6.53
2018-09-13T06:29:23.567Z,6.40
2018-09-13T06:32:08.570Z,6.80
2018-09-13T06:34:52.045Z,8.30
2018-09-13T06:37:35.971Z,6.20
2018-09-13T06:40:19.013Z,6.60
2018-09-13T06:43:01.648Z,6.67
2018-09-13T06:45:44.537Z,7.07
2018-09-13T06:48:27.458Z,5.93
2018-09-13T06:51:09.824Z,7.13
2018-09-13T06:53:52.796Z,6.83
2018-09-13T06:56:35.535Z,7.00
2018-09-13T06:59:18.211Z,5.80
2018-09-13T07:02:01.576Z,6.47
2018-09-13T07:04:44.597Z,6.57
2018-09-13T07:07:27.536Z,5.13
2018-09-13T07:10:10.405Z,5.47
2018-09-13T07:12:53.565Z,6.03
2018-09-13T07:15:35.897Z,5.73
2018-09-13T07:18:31.693Z,4.73
2018-09-13T07:21:15.488Z,5.07
2018-09-13T07:23:58.342Z,5.00
2018-09-13T07:26:41.072Z,5.63
2018-09-13T07:29:24.212Z,4.47
2018-09-13T07:32:06.749Z,4.03
2018-09-13T07:34:49.357Z,4.90
2018-09-13T07:37:32.163Z,5.80
2018-09-13T07:40:14.792Z,4.57
2018-09-13T07:42:57.359Z,4.50
2018-09-13T07:45:40.655Z,3.80
2018-09-13T07:48:24.049Z,4.17
2018-09-13T07:51:07.004Z,4.20
2018-09-13T07:53:49.589Z,4.70
2018-09-13T07:56:32.217Z,4.22
2018-09-13T07:59:14.845Z,4.17
2018-09-13T08:01:58.242Z,4.33
2018-09-13T08:04:42.012Z,3.77
2018-09-13T08:07:25.090Z,4.85
2018-09-13T08:10:08.008Z,3.77
2018-09-13T08:12:50.660Z,4.22
2018-09-13T08:15:37.878Z,3.92
2018-09-13T08:18:20.129Z,3.33
2018-09-13T08:21:03.065Z,3.75
2018-09-13T08:23:46.171Z,3.17
2018-09-13T08:26:28.842Z,3.45
2018-09-13T08:29:12.007Z,4.87
2018-09-13T08:31:55.748Z,4.65
2018-09-13T08:34:38.939Z,4.62
2018-09-13T08:37:21.633Z,5.15
2018-09-13T08:40:04.588Z,4.35
2018-09-13T08:42:50.668Z,4.25
2018-09-13T08:45:33.596Z,4.12
2018-09-13T08:48:15.952Z,4.47
2018-09-13T08:50:58.763Z,4.33
2018-09-13T08:53:41.667Z,4.22
2018-09-13T08:56:24.552Z,4.42
2018-09-13T08:59:07.435Z,4.10
2018-09-13T09:01:50.129Z,4.97
2018-09-13T09:04:32.940Z,4.12
2018-09-13T09:07:15.748Z,3.77
2018-09-13T09:09:58.592Z,4.83
2018-09-13T09:12:41.228Z,4.37
2018-09-13T09:15:24.581Z,4.25
2018-09-13T09:18:07.641Z,4.17
2018-09-13T09:20:50.197Z,4.10
2018-09-13T09:23:33.126Z,5.22
2018-09-13T09:26:16.391Z,4.47
2018-09-13T09:28:59.267Z,4.80
2018-09-13T09:31:42.023Z,4.03
2018-09-13T09:34:24.947Z,4.35
2018-09-13T09:37:11.823Z,4.70
2018-09-13T09:39:54.478Z,4.35
2018-09-13T09:42:37.514Z,4.05
2018-09-13T09:45:20.301Z,4.47
2018-09-13T09:48:08.911Z,4.67
2018-09-13T09:50:51.618Z,4.22
2018-09-13T09:53:35.185Z,4.50
2018-09-13T09:56:17.778Z,5.10
2018-09-13T09:59:00.609Z,4.58
2018-09-13T10:01:48.505Z,4.28
2018-09-13T10:04:31.420Z,4.78
2018-09-13T10:07:14.329Z,4.37
2018-09-13T10:09:57.024Z,3.95
2018-09-13T10:12:40.095Z,4.40
2018-09-13T10:15:32.178Z,5.10
2018-09-13T10:18:19.880Z,4.50
2018-09-13T10:21:07.713Z,4.45
2018-09-13T10:23:56.127Z,4.10
2018-09-13T10:26:44.450Z,4.30
2018-09-13T10:29:32.387Z,3.87
2018-09-13T10:32:19.720Z,4.60
2018-09-13T10:35:07.600Z,4.45
2018-09-13T10:37:55.654Z,4.60
2018-09-13T10:40:44.517Z,4.47
2018-09-13T10:43:32.833Z,3.95
2018-09-13T10:46:20.664Z,4.55
2018-09-13T10:49:08.462Z,4.55
2018-09-13T10:51:56.126Z,4.47
2018-09-13T10:54:41.608Z,4.50
2018-09-13T10:57:29.767Z,4.87
2018-09-13T11:00:13.236Z,3.83
2018-09-13T11:02:57.332Z,4.40
2018-09-13T11:05:40.437Z,4.45
2018-09-13T11:08:22.804Z,4.50
2018-09-13T11:11:05.468Z,4.58
2018-09-13T11:13:53.210Z,5.05
2018-09-13T11:16:35.730Z,5.30
2018-09-13T11:19:18.576Z,4.62
2018-09-13T11:22:01.255Z,4.05
2018-09-13T11:24:44.185Z,4.33
2018-09-13T11:27:26.965Z,4.60
2018-09-13T11:30:10.151Z,5.00
2018-09-13T11:32:52.760Z,5.08
2018-09-13T11:35:35.408Z,3.72
2018-09-13T11:38:19.666Z,4.50
2018-09-13T11:41:02.921Z,5.00
2018-09-13T11:43:46.093Z,5.03
2018-09-13T11:46:28.773Z,5.08
2018-09-13T11:49:11.410Z,4.37
2018-09-13T11:51:54.168Z,5.28
2018-09-13T11:54:36.943Z,5.15
2018-09-13T11:57:19.796Z,4.53
2018-09-13T12:00:02.447Z,4.65
2018-09-13T12:02:45.804Z,6.33
2018-09-13T12:05:28.967Z,5.22
2018-09-13T12:08:13.337Z,4.00
2018-09-13T12:10:56.663Z,4.95
2018-09-13T12:13:39.523Z,4.72
2018-09-13T12:16:22.408Z,3.83
2018-09-13T12:19:05.870Z,4.62
2018-09-13T12:21:49.791Z,4.80
2018-09-13T12:24:32.835Z,4.10
2018-09-13T12:27:15.656Z,5.55
2018-09-13T12:29:58.523Z,5.15
2018-09-13T12:32:41.465Z,5.08
2018-09-13T12:35:23.977Z,5.10
2018-09-13T12:38:06.554Z,4.87
2018-09-13T12:40:49.396Z,4.92
2018-09-13T12:43:32.074Z,5.03
2018-09-13T12:46:14.999Z,4.62
2018-09-13T12:48:57.546Z,5.30
2018-09-13T12:51:42.422Z,4.95
2018-09-13T12:54:25.308Z,4.83
2018-09-13T12:57:08.005Z,5.35
2018-09-13T12:59:50.898Z,5.55
2018-09-13T13:02:33.382Z,5.15
2018-09-13T13:05:16.297Z,5.35
2018-09-13T13:07:59.072Z,5.28
2018-09-13T13:10:42.033Z,5.30
2018-09-13T13:13:24.893Z,5.37
2018-09-13T13:16:07.329Z,5.22
2018-09-13T13:18:50.069Z,4.72
2018-09-13T13:21:32.754Z,5.65
2018-09-13T13:24:15.507Z,5.20
2018-09-13T13:26:58.319Z,6.10
2018-09-13T13:29:41.327Z,5.47
2018-09-13T13:32:23.879Z,5.85
2018-09-13T13:35:06.932Z,5.35
2018-09-13T13:37:49.489Z,6.15
2018-09-13T13:40:32.186Z,5.97
2018-09-13T13:43:14.901Z,5.55
2018-09-13T13:45:57.863Z,6.05
2018-09-13T13:48:40.593Z,5.55
2018-09-13T13:51:23.297Z,5.95
2018-09-13T13:54:06.383Z,6.12
2018-09-13T13:56:49.760Z,5.67
2018-09-13T13:59:32.654Z,5.75
2018-09-13T14:02:15.407Z,5.33
2018-09-13T14:04:58.176Z,6.15
2018-09-13T14:07:41.026Z,6.12
2018-09-13T14:10:23.993Z,6.10
2018-09-13T14:13:06.631Z,6.35
2018-09-13T14:15:49.439Z,7.90
2018-09-13T14:18:32.477Z,6.60
2018-09-13T14:21:15.065Z,6.00
2018-09-13T14:23:57.710Z,6.30
2018-09-13T14:26:40.430Z,6.00
2018-09-13T14:29:23.260Z,6.00
2018-09-13T14:32:05.977Z,5.95
2018-09-13T14:34:48.800Z,6.75
2018-09-13T14:37:31.622Z,7.00
2018-09-13T14:40:14.527Z,6.97
2018-09-13T14:42:57.308Z,6.30
2018-09-13T14:45:40.237Z,6.45
2018-09-13T14:48:23.102Z,7.05
2018-09-13T14:51:05.839Z,6.20
2018-09-13T14:53:48.217Z,6.05
2018-09-13T14:56:30.818Z,5.60
2018-09-13T14:59:13.714Z,6.75
2018-09-13T15:01:56.612Z,6.72
2018-09-13T15:04:40.622Z,5.67
2018-09-13T15:07:24.042Z,7.00
2018-09-13T15:10:07.149Z,6.55
2018-09-13T15:12:50.582Z,6.53
2018-09-13T15:15:33.445Z,5.83
2018-09-13T15:18:16.212Z,5.87
2018-09-13T15:20:58.876Z,5.42
2018-09-13T15:23:41.691Z,7.42
2018-09-13T15:26:24.423Z,6.03
2018-09-13T15:29:07.129Z,6.37
2018-09-13T15:31:50.054Z,7.12
2018-09-13T15:34:32.725Z,7.35
2018-09-13T15:37:15.428Z,6.95
2018-09-13T15:39:58.160Z,8.33
2018-09-13T15:42:40.968Z,8.57
2018-09-13T15:45:23.656Z,7.70
2018-09-13T15:48:06.474Z,8.93
2018-09-13T15:50:49.398Z,7.10
2018-09-13T15:53:32.315Z,8.00
2018-09-13T15:56:15.989Z,7.10
2018-09-13T15:59:03.254Z,7.35
2018-09-13T16:01:46.798Z,7.60
2018-09-13T16:04:29.379Z,6.97
2018-09-13T16:07:12.297Z,7.00
2018-09-13T16:09:55.095Z,6.80
2018-09-13T16:12:38.380Z,7.23
2018-09-13T16:15:20.898Z,6.93
2018-09-13T16:18:04.425Z,6.10
2018-09-13T16:20:47.244Z,6.00
2018-09-13T16:23:29.895Z,6.30
2018-09-13T16:26:12.777Z,7.03
2018-09-13T16:28:55.437Z,6.20
2018-09-13T16:31:38.230Z,6.20
2018-09-13T16:34:21.008Z,6.23
2018-09-13T16:37:11.853Z,6.40
2018-09-13T16:40:05.061Z,6.30
2018-09-13T16:43:02.900Z,7.13
2018-09-13T16:45:45.766Z,6.23
2018-09-13T16:48:34.468Z,6.73
2018-09-13T16:51:17.096Z,6.70
2018-09-13T16:53:59.902Z,6.40
2018-09-13T16:56:42.709Z,6.13
2018-09-13T16:59:26.027Z,6.70
2018-09-13T17:02:09.193Z,6.83
2018-09-13T17:04:52.045Z,6.10
2018-09-13T17:07:35.269Z,7.33
2018-09-13T17:10:18.883Z,6.90
2018-09-13T17:13:02.557Z,6.77
2018-09-13T17:15:45.228Z,7.10
2018-09-13T17:18:27.699Z,6.93
2018-09-13T17:21:10.620Z,7.27
2018-09-13T17:23:57.332Z,6.40
2018-09-13T17:26:40.144Z,5.83
2018-09-13T17:29:23.749Z,7.30
2018-09-13T17:32:06.739Z,7.27
2018-09-13T17:34:49.395Z,8.90
2018-09-13T17:37:32.589Z,6.27
2018-09-13T17:40:15.742Z,7.27
2018-09-13T17:42:58.829Z,7.27
2018-09-13T17:45:59.123Z,7.63
2018-09-13T17:48:42.519Z,7.53
2018-09-13T17:51:25.216Z,7.10
2018-09-13T17:54:07.953Z,7.47
2018-09-13T17:56:51.293Z,6.97
2018-09-13T17:59:34.531Z,7.50
2018-09-13T18:02:17.211Z,7.40
2018-09-13T18:05:00.170Z,7.27
2018-09-13T18:07:43.456Z,7.53
2018-09-13T18:10:25.782Z,7.50
2018-09-13T18:13:08.528Z,7.60
2018-09-13T18:15:51.201Z,7.80
2018-09-13T18:18:34.784Z,9.37
2018-09-13T18:21:17.585Z,7.17
2018-09-13T18:24:00.349Z,7.47
2018-09-13T18:26:43.029Z,7.73
2018-09-13T18:29:25.837Z,7.57
2018-09-13T18:32:08.575Z,8.33
2018-09-13T18:34:52.593Z,8.10
2018-09-13T18:37:35.041Z,8.03
2018-09-13T18:40:22.959Z,6.93
2018-09-13T18:43:05.868Z,7.53
2018-09-13T18:45:49.756Z,6.90
2018-09-13T18:48:36.984Z,7.07
2018-09-13T18:51:20.829Z,8.50
2018-09-13T18:54:04.080Z,7.53
2018-09-13T18:56:46.826Z,8.40
2018-09-13T18:59:30.229Z,7.93
2018-09-13T19:02:14.287Z,7.70
2018-09-13T19:04:57.218Z,8.70
2018-09-13T19:07:39.882Z,8.60
2018-09-13T19:10:22.472Z,8.20
2018-09-13T19:13:05.449Z,8.30
2018-09-13T19:15:49.088Z,7.70
2018-09-13T19:18:32.495Z,7.27
2018-09-13T19:21:14.954Z,7.50
2018-09-13T19:23:57.739Z,8.37
2018-09-13T19:26:40.375Z,9.00
2018-09-13T19:29:28.832Z,7.90
2018-09-13T19:32:13.061Z,8.37
2018-09-13T19:35:00.610Z,8.50
2018-09-13T19:37:43.958Z,8.70
2018-09-13T19:40:26.713Z,9.03
2018-09-13T19:43:09.300Z,8.53
2018-09-13T19:45:51.992Z,8.37
2018-09-13T19:48:34.909Z,8.77
2018-09-13T19:51:17.240Z,8.30
2018-09-13T19:53:59.936Z,7.90
2018-09-13T19:56:42.579Z,8.77
2018-09-13T19:59:25.225Z,8.50
2018-09-13T20:02:08.072Z,9.13
2018-09-13T20:04:51.350Z,9.17
2018-09-13T20:07:41.146Z,8.60
2018-09-13T20:10:23.918Z,8.43
2018-09-13T20:13:06.905Z,9.30
2018-09-13T20:15:50.446Z,9.17
2018-09-13T20:18:32.977Z,8.33
2018-09-13T20:21:16.077Z,9.03
2018-09-13T20:23:59.446Z,8.37
2018-09-13T20:26:42.543Z,9.60
2018-09-13T20:29:28.939Z,8.83
2018-09-13T20:32:12.464Z,8.83
2018-09-13T20:34:55.172Z,8.57
2018-09-13T20:37:37.891Z,8.53
2018-09-13T20:43:55.156Z,8.20
2018-09-13T20:46:37.484Z,8.70
2018-09-13T20:49:20.324Z,9.70
2018-09-13T20:52:05.401Z,8.07
2018-09-13T20:54:47.871Z,8.73
2018-09-13T20:57:31.122Z,9.23
2018-09-13T21:00:18.886Z,7.87
2018-09-13T21:06:05.334Z,8.70
2018-09-13T21:08:48.806Z,9.23
2018-09-13T21:11:31.989Z,8.30
2018-09-13T21:14:14.695Z,8.40
2018-09-13T21:16:57.690Z,8.87
2018-09-13T21:19:41.120Z,8.47
2018-09-13T21:22:23.390Z,8.77
2018-09-13T21:25:07.550Z,9.00
2018-09-13T21:27:50.830Z,7.80
2018-09-13T21:30:33.763Z,8.33
2018-09-13T21:33:16.624Z,8.70
2018-09-13T21:35:59.442Z,8.30
2018-09-13T21:38:42.222Z,9.37
2018-09-13T21:41:25.434Z,7.53
2018-09-13T21:44:08.811Z,9.60
2018-09-13T21:46:51.408Z,8.77
2018-09-13T21:49:34.131Z,9.00
2018-09-13T21:52:16.811Z,8.20
2018-09-13T21:54:59.566Z,8.03
2018-09-13T21:57:42.853Z,8.10
2018-09-13T22:00:27.433Z,8.13
2018-09-13T22:03:10.217Z,7.67
2018-09-13T22:05:53.874Z,8.73
2018-09-13T22:08:37.171Z,8.37
2018-09-13T22:11:22.002Z,8.10
2018-09-13T22:14:04.351Z,8.13
2018-09-13T22:16:47.124Z,8.57
2018-09-13T22:19:29.531Z,8.63
2018-09-13T22:22:17.372Z,8.50
2018-09-13T22:25:00.524Z,8.50
2018-09-13T22:27:43.785Z,8.47
2018-09-13T22:30:26.387Z,8.17
2018-09-13T22:33:09.269Z,8.40
2018-09-13T22:35:52.145Z,9.20
2018-09-13T22:38:34.810Z,8.10
2018-09-13T22:41:17.542Z,7.63
2018-09-13T22:44:00.319Z,8.67
2018-09-13T22:46:42.929Z,7.40
2018-09-13T22:49:25.668Z,8.30
2018-09-13T22:52:08.965Z,7.40
2018-09-13T22:54:52.092Z,8.40
2018-09-13T22:57:34.535Z,8.17
2018-09-13T23:00:17.370Z,8.77
2018-09-13T23:03:00.639Z,7.93
2018-09-13T23:05:43.489Z,8.13
2018-09-13T23:08:26.288Z,8.97
2018-09-13T23:11:08.826Z,9.30
2018-09-13T23:13:51.368Z,8.30
2018-09-13T23:16:33.984Z,8.43
2018-09-13T23:19:16.797Z,8.23
2018-09-13T23:21:59.496Z,8.23
2018-09-13T23:24:42.201Z,7.87
2018-09-13T23:27:24.988Z,8.20
2018-09-13T23:30:08.347Z,8.80
2018-09-13T23:32:51.852Z,8.87
2018-09-13T23:35:34.704Z,9.20
2018-09-13T23:38:17.228Z,9.40
2018-09-13T23:41:00.007Z,8.90
2018-09-13T23:43:42.754Z,8.70
2018-09-13T23:46:25.636Z,8.53
2018-09-13T23:49:07.939Z,8.33
2018-09-13T23:51:50.927Z,9.40
2018-09-13T23:54:35.075Z,8.17
2018-09-13T23:57:18.316Z,8.80
